Molalla, Oregon
Current Conditions -  °F | °C
As of 8:53 AM on Saturday 25 Oct 2014 (Local Time) from KUAO Reporting Station
Few Clouds Few Clouds  
Wind Chill: 53°   Ceiling: Unl
Heat Index: 53°   Visibility: 10mi
Dew Point: 51°   Wind: 10mph
Humidity: 93%   Direction: 20°NNE
Pressure: 29.47"   Gusts: NA
Location:  45.15°N, 122.58°W
Report Text: KUAO 251553Z AUTO 02009KT 10SM FEW120 12/11 A2947 RMK AO2 PRESFR SLP980 T01170106
Loading
Personal Weather Stations






























Interactive Weather Map
Tropical Storm Tracking
New forecast layout! Learn more

10-Day Weather Forecast

Advertisements
Track Severe Weather on mobile